Wilson Cadiz — 8PSY — position and weather

sailwx.info

Track history (hours):
 
Tides and Currents Weather Stations Pressure Air Temp Water Temp Dewpoint Dewpoint Depression Visibility Wind Speed Wind Dir Waves Ship Positions

Wilson Cadiz

Last reported at 2015-Sep-02 10:22 UTC. Time now 2015-Sep-04 07:56 UTC.
Position N 39°23' W 009°51'.

Length 100 m; draft 5.1 m.

Type: Ship. MMSI: 314216000.

Date/timePositionNaut miles runAvg speedWind from/ knotsBaromVisibWave heightAir tempDewpointWater temp
2015-Sep-02 10:22N 39°23' W 009°51'6 7.1
2015-Sep-02 09:33N 39°17' W 009°51'7 7.0
2015-Sep-02 08:33N 39°10' W 009°51'7 6.9
2015-Sep-02 07:33N 39°03' W 009°51'7 7.1
2015-Sep-02 06:33N 38°56' W 009°51'7 6.8
2015-Sep-02 05:33N 38°49' W 009°51'7 7.0
2015-Sep-02 04:33N 38°42' W 009°51'8 7.7
2015-Sep-02 03:33N 38°35' W 009°49'9 9.1
2015-Sep-02 02:33N 38°26' W 009°47'10 9.6
2015-Sep-02 01:33N 38°16' W 009°44'10 9.5
2015-Sep-02 00:33N 38°07' W 009°41'13 9.5
2015-Sep-01 23:11N 37°54' W 009°37'6 9.3
2015-Sep-01 22:33N 37°49' W 009°36'9 8.7
2015-Sep-01 21:34N 37°40' W 009°33'9 8.5
2015-Sep-01 20:33N 37°32' W 009°31'9 8.8
2015-Sep-01 19:33N 37°23' W 009°28'64 9.1
2015-Sep-01 12:33N 36°36' W 008°35'1210.7
2015-Sep-01 11:24N 36°32' W 008°21'  
2015-Aug-26 12:32N 37°17' W 000°59'1311.5
2015-Aug-26 11:23N 37°26' W 000°46'1011.8
2015-Aug-26 10:30N 37°33' W 000°37'1111.5
2015-Aug-26 09:33N 37°41' W 000°28'1211.6
2015-Aug-26 08:32N 37°51' W 000°20'1111.6
2015-Aug-26 07:33N 38°00' W 000°12'90 9.9
2015-Aug-25 22:28N 39°30' W 000°08'6 0.5
2015-Aug-25 09:20N 39°36' W 000°11'6110.0
2015-Aug-25 03:14N 38°43' E 000°27'1110.3
2015-Aug-25 02:10N 38°33' E 000°20'610.1
2015-Aug-25 01:33N 38°28' E 000°15'1010.1
2015-Aug-25 00:33N 38°20' E 000°08'10 9.9
2015-Aug-24 23:33N 38°11' E 000°01'10 9.7
2015-Aug-24 22:32N 38°03' W 000°06'9 9.5
2015-Aug-24 21:33N 37°56' W 000°12'10 9.7
2015-Aug-24 20:33N 37°47' W 000°19'10 9.7
2015-Aug-24 19:33N 37°40' W 000°26'10 9.6
2015-Aug-24 18:33N 37°32' W 000°33'10 9.9
2015-Aug-24 17:33N 37°25' W 000°43'1010.1
2015-Aug-24 16:33N 37°19' W 000°52'1110.4
2015-Aug-24 15:28N 37°11' W 001°03'  
Track history (hours):
 
Tides and Currents Weather Stations Pressure Air Temp Water Temp Dewpoint Dewpoint Depression Visibility Wind Speed Wind Dir Waves Ship Positions

Wilson Cadiz

Last reported at 2015-Sep-02 10:22 UTC. Time now 2015-Sep-04 07:56 UTC.
Position N 39°23' W 009°51'.

Length 100 m; draft 5.1 m.

Type: Ship. MMSI: 314216000.

Date/timePositionNaut miles runAvg speedWind from/ knotsBaromVisibWave heightAir tempDewpointWater temp
2015-Sep-02 10:22N 39°23' W 009°51'6 7.1
2015-Sep-02 09:33N 39°17' W 009°51'7 7.0
2015-Sep-02 08:33N 39°10' W 009°51'7 6.9
2015-Sep-02 07:33N 39°03' W 009°51'7 7.1
2015-Sep-02 06:33N 38°56' W 009°51'7 6.8
2015-Sep-02 05:33N 38°49' W 009°51'7 7.0
2015-Sep-02 04:33N 38°42' W 009°51'8 7.7
2015-Sep-02 03:33N 38°35' W 009°49'9 9.1
2015-Sep-02 02:33N 38°26' W 009°47'10 9.6
2015-Sep-02 01:33N 38°16' W 009°44'10 9.5
2015-Sep-02 00:33N 38°07' W 009°41'13 9.5
2015-Sep-01 23:11N 37°54' W 009°37'6 9.3
2015-Sep-01 22:33N 37°49' W 009°36'9 8.7
2015-Sep-01 21:34N 37°40' W 009°33'9 8.5
2015-Sep-01 20:33N 37°32' W 009°31'9 8.8
2015-Sep-01 19:33N 37°23' W 009°28'64 9.1
2015-Sep-01 12:33N 36°36' W 008°35'1210.7
2015-Sep-01 11:24N 36°32' W 008°21'  
2015-Aug-26 12:32N 37°17' W 000°59'1311.5
2015-Aug-26 11:23N 37°26' W 000°46'1011.8
2015-Aug-26 10:30N 37°33' W 000°37'1111.5
2015-Aug-26 09:33N 37°41' W 000°28'1211.6
2015-Aug-26 08:32N 37°51' W 000°20'1111.6
2015-Aug-26 07:33N 38°00' W 000°12'90 9.9
2015-Aug-25 22:28N 39°30' W 000°08'6 0.5
2015-Aug-25 09:20N 39°36' W 000°11'6110.0
2015-Aug-25 03:14N 38°43' E 000°27'1110.3
2015-Aug-25 02:10N 38°33' E 000°20'610.1
2015-Aug-25 01:33N 38°28' E 000°15'1010.1
2015-Aug-25 00:33N 38°20' E 000°08'10 9.9
2015-Aug-24 23:33N 38°11' E 000°01'10 9.7
2015-Aug-24 22:32N 38°03' W 000°06'9 9.5
2015-Aug-24 21:33N 37°56' W 000°12'10 9.7
2015-Aug-24 20:33N 37°47' W 000°19'10 9.7
2015-Aug-24 19:33N 37°40' W 000°26'10 9.6
2015-Aug-24 18:33N 37°32' W 000°33'10 9.9
2015-Aug-24 17:33N 37°25' W 000°43'1010.1
2015-Aug-24 16:33N 37°19' W 000°52'1110.4
2015-Aug-24 15:28N 37°11' W 001°03'  

Dump ship's entire track history